createdAt,value
2019-04-23T00:03:51.678Z,1.98
2019-04-23T00:11:19.390Z,1.82
2019-04-23T00:13:52.085Z,1.77
2019-04-23T00:16:21.888Z,1.90
2019-04-23T00:18:49.338Z,2.20
2019-04-23T00:24:17.458Z,2.17
2019-04-23T00:26:36.719Z,1.90
2019-04-23T00:29:05.425Z,1.90
2019-04-23T00:31:33.830Z,1.77
2019-04-23T00:33:57.832Z,2.10
2019-04-23T00:36:32.044Z,2.02
2019-04-23T00:38:50.153Z,2.08
2019-04-23T00:41:25.099Z,2.25
2019-04-23T00:44:09.020Z,2.10
2019-04-23T00:46:29.013Z,2.40
2019-04-23T00:49:03.658Z,2.10
2019-04-23T00:51:27.410Z,2.15
2019-04-23T00:53:53.484Z,2.67
2019-04-23T00:56:42.061Z,1.90
2019-04-23T00:58:55.249Z,2.00
2019-04-23T01:03:58.917Z,2.22
2019-04-23T01:06:24.130Z,2.10
2019-04-23T01:09:00.166Z,2.30
2019-04-23T01:11:27.529Z,2.40
2019-04-23T01:14:04.847Z,1.90
2019-04-23T01:16:30.863Z,2.27
2019-04-23T01:19:24.848Z,2.27
2019-04-23T01:21:24.382Z,2.65
2019-04-23T01:24:04.369Z,2.20
2019-04-23T01:27:22.397Z,2.20
2019-04-23T01:29:45.750Z,1.90
2019-04-23T01:32:05.918Z,2.30
2019-04-23T01:35:06.957Z,1.98
2019-04-23T01:37:11.042Z,2.33
2019-04-23T01:39:36.502Z,2.37
2019-04-23T01:42:22.502Z,2.17
2019-04-23T01:44:42.309Z,2.60
2019-04-23T01:47:14.980Z,2.35
2019-04-23T01:49:48.423Z,2.27
2019-04-23T01:52:08.195Z,2.45
2019-04-23T01:54:41.530Z,2.00
2019-04-23T01:57:11.562Z,2.45
2019-04-23T01:59:39.259Z,3.20
2019-04-23T02:02:08.703Z,2.35
2019-04-23T02:04:36.634Z,2.47
2019-04-23T02:07:06.160Z,2.90
2019-04-23T02:09:45.226Z,2.55
2019-04-23T02:12:04.399Z,2.65
2019-04-23T02:14:34.931Z,2.52
2019-04-23T02:17:07.611Z,2.40
2019-04-23T02:19:42.814Z,2.33
2019-04-23T02:22:12.957Z,2.40
2019-04-23T02:24:45.609Z,2.45
2019-04-23T02:27:12.158Z,2.60
2019-04-23T02:30:02.580Z,2.50
2019-04-23T02:35:01.714Z,2.22
2019-04-23T02:39:57.576Z,2.80
2019-04-23T02:42:40.457Z,2.22
2019-04-23T02:44:45.526Z,2.33
2019-04-23T02:54:50.428Z,2.58
2019-04-23T02:57:13.847Z,2.60
2019-04-23T03:04:50.576Z,2.50
2019-04-23T03:07:26.919Z,3.00
2019-04-23T03:09:45.217Z,2.60
2019-04-23T03:12:18.470Z,2.87
2019-04-23T03:14:55.809Z,2.55
2019-04-23T03:17:31.046Z,2.83
2019-04-23T03:20:08.002Z,2.47
2019-04-23T03:22:49.497Z,2.35
2019-04-23T03:27:46.041Z,2.70
2019-04-23T03:34:36.749Z,2.70
2019-04-23T03:38:21.264Z,2.60
2019-04-23T03:41:05.021Z,2.80
2019-04-23T03:43:06.772Z,3.10
2019-04-23T03:48:08.082Z,3.05
2019-04-23T03:53:03.010Z,2.90
2019-04-23T03:55:37.422Z,3.12
2019-04-23T03:58:08.158Z,3.12
2019-04-23T04:00:37.114Z,2.92
2019-04-23T04:03:12.709Z,3.35
2019-04-23T04:05:35.919Z,4.10
2019-04-23T04:08:13.881Z,2.83
2019-04-23T04:10:41.733Z,3.37
2019-04-23T04:12:56.286Z,3.15
2019-04-23T04:18:23.535Z,3.30
2019-04-23T04:20:53.848Z,3.80
2019-04-23T04:25:37.199Z,3.45
2019-04-23T04:33:19.131Z,3.35
2019-04-23T04:38:15.495Z,3.37
2019-04-23T04:40:45.754Z,3.30
2019-04-23T04:43:14.140Z,3.35
2019-04-23T04:47:49.292Z,3.60
2019-04-23T04:50:24.205Z,3.25
2019-04-23T04:55:32.137Z,3.87
2019-04-23T04:57:58.258Z,3.35
2019-04-23T05:08:11.501Z,3.62
2019-04-23T05:10:44.123Z,3.75
2019-04-23T05:13:22.820Z,4.20
2019-04-23T05:15:28.433Z,3.35
2019-04-23T05:18:17.771Z,3.70
2019-04-23T05:20:48.313Z,4.00
2019-04-23T05:23:15.776Z,3.98
2019-04-23T05:25:33.106Z,4.25
2019-04-23T05:28:23.718Z,4.00
2019-04-23T05:30:38.379Z,4.08
2019-04-23T05:36:04.323Z,3.92
2019-04-23T05:40:45.332Z,4.25
2019-04-23T05:43:08.079Z,4.10
2019-04-23T05:45:38.207Z,4.30
2019-04-23T05:48:14.301Z,3.98
2019-04-23T05:50:42.523Z,4.35
2019-04-23T05:53:07.400Z,4.58
2019-04-23T05:55:39.822Z,4.25
2019-04-23T05:58:06.442Z,4.15
2019-04-23T06:00:32.359Z,4.12
2019-04-23T06:03:04.929Z,3.65
2019-04-23T06:05:34.112Z,3.92
2019-04-23T06:08:12.173Z,4.08
2019-04-23T06:10:42.216Z,4.35
2019-04-23T06:13:16.763Z,4.40
2019-04-23T06:15:37.029Z,3.90
2019-04-23T06:20:42.399Z,4.28
2019-04-23T06:23:18.764Z,3.90
2019-04-23T06:25:50.991Z,4.15
2019-04-23T06:28:18.447Z,4.10
2019-04-23T06:33:11.192Z,4.22
2019-04-23T06:35:36.232Z,4.50
2019-04-23T06:40:34.272Z,4.20
2019-04-23T06:43:24.302Z,4.08
2019-04-23T06:45:49.200Z,3.95
2019-04-23T06:48:27.671Z,4.03
2019-04-23T06:51:00.780Z,4.15
2019-04-23T06:53:21.566Z,4.70
2019-04-23T06:55:57.504Z,4.20
2019-04-23T06:58:25.437Z,4.42
2019-04-23T07:00:55.464Z,4.55
2019-04-23T07:03:36.075Z,4.33
2019-04-23T07:06:16.699Z,4.72
2019-04-23T07:08:43.057Z,4.85
2019-04-23T07:11:08.400Z,4.70
2019-04-23T07:13:40.154Z,4.92
2019-04-23T07:16:03.184Z,4.12
2019-04-23T07:18:34.485Z,4.30
2019-04-23T07:21:06.541Z,4.80
2019-04-23T07:23:42.669Z,5.05
2019-04-23T07:26:09.256Z,5.08
2019-04-23T07:28:36.309Z,4.50
2019-04-23T07:31:07.763Z,5.03
2019-04-23T07:33:34.770Z,4.72
2019-04-23T07:36:06.976Z,4.70
2019-04-23T07:38:47.601Z,4.85
2019-04-23T07:41:30.306Z,4.95
2019-04-23T07:44:17.329Z,4.90
2019-04-23T07:47:11.210Z,4.62
2019-04-23T07:49:34.319Z,4.95
2019-04-23T07:52:03.667Z,4.92
2019-04-23T07:54:30.789Z,5.40
2019-04-23T07:57:03.013Z,4.85
2019-04-23T08:01:57.793Z,4.83
2019-04-23T08:04:36.352Z,5.30
2019-04-23T08:07:00.432Z,5.55
2019-04-23T08:09:24.093Z,4.80
2019-04-23T08:11:56.970Z,5.67
2019-04-23T08:14:30.162Z,4.60
2019-04-23T08:16:50.302Z,5.03
2019-04-23T08:19:56.004Z,5.35
2019-04-23T08:25:14.030Z,4.62
2019-04-23T08:28:08.026Z,5.17
2019-04-23T08:30:33.436Z,5.55
2019-04-23T08:33:04.319Z,5.17
2019-04-23T08:35:35.931Z,4.95
2019-04-23T08:40:40.742Z,5.35
2019-04-23T08:43:36.043Z,5.20
2019-04-23T08:46:05.740Z,5.08
2019-04-23T08:48:55.854Z,5.45
2019-04-23T08:51:09.651Z,5.33
2019-04-23T08:56:06.173Z,5.20
2019-04-23T08:58:31.912Z,5.17
2019-04-23T09:01:05.779Z,5.10
2019-04-23T09:03:33.329Z,5.67
2019-04-23T09:11:05.134Z,4.78
2019-04-23T09:13:49.903Z,4.87
2019-04-23T09:15:56.584Z,5.42
2019-04-23T09:20:54.775Z,5.33
2019-04-23T09:23:36.355Z,5.15
2019-04-23T09:28:34.911Z,4.62
2019-04-23T09:31:05.180Z,5.08
2019-04-23T09:36:27.408Z,5.12
2019-04-23T09:39:00.225Z,5.70
2019-04-23T09:41:37.254Z,5.60
2019-04-23T09:47:20.068Z,5.70
2019-04-23T09:49:46.741Z,4.67
2019-04-23T09:52:20.353Z,5.17
2019-04-23T09:54:51.064Z,5.08
2019-04-23T09:57:10.560Z,5.70
2019-04-23T09:59:44.359Z,5.28
2019-04-23T10:02:06.164Z,5.53
2019-04-23T10:04:28.185Z,5.42
2019-04-23T10:06:58.771Z,5.20
2019-04-23T10:09:14.564Z,5.30
2019-04-23T10:11:43.219Z,5.45
2019-04-23T10:14:12.344Z,5.30
2019-04-23T10:16:41.342Z,4.97
2019-04-23T10:19:09.976Z,5.62
2019-04-23T10:21:37.483Z,5.28
2019-04-23T10:24:05.455Z,5.28
2019-04-23T10:26:34.358Z,5.12
2019-04-23T10:29:09.746Z,4.70
2019-04-23T10:31:37.615Z,5.17
2019-04-23T10:34:06.382Z,5.50
2019-04-23T10:36:34.626Z,5.10
2019-04-23T10:39:13.756Z,4.95
2019-04-23T10:41:35.852Z,5.22
2019-04-23T10:44:14.062Z,5.05
2019-04-23T10:47:20.028Z,4.50
2019-04-23T10:52:26.105Z,5.62
2019-04-23T10:57:22.620Z,5.10
2019-04-23T10:59:47.329Z,5.20
2019-04-23T11:05:00.024Z,6.10
2019-04-23T11:12:44.868Z,4.75
2019-04-23T11:15:26.701Z,6.00
2019-04-23T11:20:25.415Z,4.80
2019-04-23T11:25:30.086Z,5.58
2019-04-23T11:30:26.258Z,5.30
2019-04-23T11:35:22.260Z,5.60
2019-04-23T11:40:17.296Z,4.80
2019-04-23T11:42:47.613Z,4.85
2019-04-23T11:45:19.267Z,5.60
2019-04-23T11:48:14.700Z,5.75
2019-04-23T11:50:18.911Z,5.03
2019-04-23T11:52:48.598Z,6.08
2019-04-23T11:55:26.196Z,5.58
2019-04-23T12:05:59.069Z,5.25
2019-04-23T12:13:35.827Z,5.58
2019-04-23T12:16:04.046Z,5.33
2019-04-23T12:18:38.712Z,5.62
2019-04-23T12:21:12.917Z,6.60
2019-04-23T12:23:49.876Z,5.95
2019-04-23T12:26:11.510Z,6.20
2019-04-23T12:28:38.299Z,6.53
2019-04-23T12:31:09.989Z,5.87
2019-04-23T12:33:45.273Z,5.95
2019-04-23T12:36:33.897Z,5.55
2019-04-23T12:45:29.127Z,5.45
2019-04-23T12:50:42.469Z,6.45
2019-04-23T12:52:51.052Z,5.53
2019-04-23T12:55:36.299Z,5.58
2019-04-23T12:57:52.293Z,6.05
2019-04-23T13:03:02.645Z,5.70
2019-04-23T13:05:25.911Z,5.97
2019-04-23T13:10:30.409Z,5.65
2019-04-23T13:12:52.818Z,5.20
2019-04-23T13:15:18.893Z,5.83
2019-04-23T13:17:50.704Z,5.47
2019-04-23T13:20:20.154Z,5.25
2019-04-23T13:22:49.317Z,5.65
2019-04-23T13:25:39.949Z,5.55
2019-04-23T13:28:23.590Z,5.08
2019-04-23T13:30:46.715Z,5.37
2019-04-23T13:33:24.988Z,5.35
2019-04-23T13:38:15.787Z,5.65
2019-04-23T13:43:21.543Z,5.97
2019-04-23T13:53:29.128Z,5.33
2019-04-23T13:55:34.860Z,4.75
2019-04-23T13:58:23.727Z,5.00
2019-04-23T14:03:09.553Z,5.12
2019-04-23T14:06:10.198Z,4.67
2019-04-23T14:08:43.198Z,4.30
2019-04-23T14:10:57.047Z,4.80
2019-04-23T14:16:04.622Z,4.92
2019-04-23T14:20:55.373Z,4.72
2019-04-23T14:23:39.751Z,4.62
2019-04-23T14:26:10.565Z,5.28
2019-04-23T14:28:44.850Z,4.75
2019-04-23T14:31:01.153Z,4.90
2019-04-23T14:33:38.320Z,5.30
2019-04-23T14:35:54.125Z,4.67
2019-04-23T14:41:07.771Z,5.47
2019-04-23T14:43:22.505Z,5.83
2019-04-23T14:46:27.035Z,5.20
2019-04-23T14:48:29.925Z,5.15
2019-04-23T14:51:09.546Z,4.70
2019-04-23T14:58:59.875Z,4.17
2019-04-23T15:01:17.771Z,5.17
2019-04-23T15:03:44.951Z,5.28
2019-04-23T15:06:12.117Z,5.08
2019-04-23T15:08:44.547Z,6.65
2019-04-23T15:11:13.075Z,6.20
2019-04-23T15:13:28.217Z,5.78
2019-04-23T15:16:11.391Z,5.87
2019-04-23T15:18:45.239Z,5.58
2019-04-23T15:21:27.698Z,4.83
2019-04-23T15:24:00.460Z,6.47
2019-04-23T15:28:13.286Z,4.83
2019-04-23T15:31:17.986Z,5.55
2019-04-23T15:33:49.146Z,4.92
2019-04-23T15:36:27.187Z,5.62
2019-04-23T15:38:46.287Z,5.05
2019-04-23T15:41:09.989Z,5.08
2019-04-23T15:43:34.649Z,5.12
2019-04-23T15:48:31.621Z,5.37
2019-04-23T15:51:11.798Z,5.25
2019-04-23T15:53:24.095Z,5.05
2019-04-23T15:56:11.528Z,5.58
2019-04-23T15:58:42.052Z,5.20
2019-04-23T16:03:20.605Z,5.15
2019-04-23T16:05:48.894Z,5.05
2019-04-23T16:08:56.912Z,10.68
2019-04-23T16:11:31.127Z,8.75
2019-04-23T16:14:04.669Z,15.10
2019-04-23T16:16:26.127Z,7.25
2019-04-23T16:19:17.607Z,12.55
2019-04-23T16:24:14.414Z,6.00
2019-04-23T16:29:25.406Z,6.58
2019-04-23T16:36:44.466Z,8.43
2019-04-23T16:39:18.633Z,5.95
2019-04-23T16:41:54.726Z,5.30
2019-04-23T16:44:20.317Z,5.70
2019-04-23T16:46:51.847Z,5.60
2019-04-23T16:51:38.661Z,4.87
2019-04-23T16:54:19.098Z,5.05
2019-04-23T16:57:01.373Z,5.20
2019-04-23T16:59:24.711Z,4.87
2019-04-23T17:01:46.991Z,5.87
2019-04-23T17:04:18.124Z,6.20
2019-04-23T17:09:09.521Z,5.03
2019-04-23T17:11:56.078Z,5.00
2019-04-23T17:14:17.875Z,5.10
2019-04-23T17:19:16.485Z,5.70
2019-04-23T17:21:36.901Z,5.12
2019-04-23T17:24:14.602Z,5.08
2019-04-23T17:26:37.368Z,4.87
2019-04-23T17:29:15.245Z,4.97
2019-04-23T17:34:17.609Z,5.33
2019-04-23T17:36:38.241Z,5.80
2019-04-23T17:39:44.123Z,5.12
2019-04-23T17:42:19.691Z,4.97
2019-04-23T17:44:51.519Z,5.17
2019-04-23T17:47:30.062Z,5.53
2019-04-23T17:52:27.992Z,4.95
2019-04-23T18:00:12.710Z,4.65
2019-04-23T18:05:04.077Z,4.50
2019-04-23T18:07:38.286Z,4.83
2019-04-23T18:09:57.045Z,5.67
2019-04-23T18:12:36.811Z,5.58
2019-04-23T18:14:52.226Z,6.12
2019-04-23T18:17:26.743Z,5.58
2019-04-23T18:20:05.305Z,4.80
2019-04-23T18:22:43.316Z,4.72
2019-04-23T18:25:17.508Z,5.15
2019-04-23T18:27:48.251Z,4.97
2019-04-23T18:30:47.549Z,4.78
2019-04-23T18:33:44.992Z,5.05
2019-04-23T18:35:42.707Z,4.75
2019-04-23T18:38:07.308Z,5.08
2019-04-23T18:40:38.785Z,4.78
2019-04-23T18:43:08.916Z,4.37
2019-04-23T18:45:39.032Z,4.67
2019-04-23T18:48:37.366Z,5.30
2019-04-23T18:50:58.507Z,5.30
2019-04-23T18:53:25.628Z,4.03
2019-04-23T18:58:08.357Z,4.75
2019-04-23T19:00:55.080Z,4.90
2019-04-23T19:03:37.561Z,4.37
2019-04-23T19:12:08.789Z,4.37
2019-04-23T19:17:30.393Z,4.72
2019-04-23T19:19:33.363Z,5.03
2019-04-23T19:24:28.744Z,4.75
2019-04-23T19:29:36.873Z,5.10
2019-04-23T19:34:37.936Z,5.17
2019-04-23T19:44:24.520Z,5.30
2019-04-23T19:47:09.249Z,5.03
2019-04-23T19:49:34.011Z,4.90
2019-04-23T19:51:56.460Z,5.10
2019-04-23T19:54:47.705Z,4.90
2019-04-23T19:59:23.471Z,4.47
2019-04-23T20:01:58.900Z,5.12
2019-04-23T20:04:23.551Z,5.15
2019-04-23T20:09:37.332Z,5.10
2019-04-23T20:11:54.779Z,4.97
2019-04-23T20:14:18.423Z,5.28
2019-04-23T20:17:16.377Z,5.30
2019-04-23T20:19:19.266Z,4.75
2019-04-23T20:21:51.148Z,4.72
2019-04-23T20:26:50.374Z,4.78
2019-04-23T20:29:52.163Z,4.95
2019-04-23T20:34:56.392Z,5.58
2019-04-23T20:37:13.581Z,4.87
2019-04-23T20:39:45.483Z,5.40
2019-04-23T20:44:57.048Z,5.62
2019-04-23T20:49:47.484Z,5.70
2019-04-23T20:52:10.483Z,4.72
2019-04-23T20:55:40.849Z,5.20
2019-04-23T21:00:04.787Z,5.22
2019-04-23T21:05:22.893Z,5.08
2019-04-23T21:10:35.909Z,5.42
2019-04-23T21:15:35.145Z,5.20
2019-04-23T21:20:35.423Z,5.58
2019-04-23T21:28:11.523Z,5.53
2019-04-23T21:46:20.489Z,5.53
2019-04-23T21:51:31.251Z,5.40
2019-04-23T21:53:50.694Z,4.95
2019-04-23T21:56:15.145Z,5.47
2019-04-23T21:58:53.638Z,5.70
2019-04-23T22:01:27.861Z,5.85
2019-04-23T22:06:21.883Z,5.42
2019-04-23T22:08:56.322Z,5.25
2019-04-23T22:11:49.531Z,5.55
2019-04-23T22:16:14.776Z,5.10
2019-04-23T22:18:57.267Z,5.20
2019-04-23T22:21:15.627Z,5.05
2019-04-23T22:28:57.894Z,5.72
2019-04-23T22:31:18.823Z,4.97
2019-04-23T22:33:54.902Z,5.67
2019-04-23T22:36:18.217Z,5.95
2019-04-23T22:38:45.306Z,5.20
2019-04-23T22:41:18.187Z,5.15
2019-04-23T22:43:57.223Z,5.22
2019-04-23T22:46:15.779Z,6.15
2019-04-23T22:49:07.939Z,5.00
2019-04-23T22:51:31.560Z,5.30
2019-04-23T22:54:02.826Z,4.90
2019-04-23T22:56:27.639Z,5.20
2019-04-23T22:59:11.693Z,5.95
2019-04-23T23:01:26.358Z,5.37
2019-04-23T23:04:04.476Z,5.90
2019-04-23T23:09:25.705Z,5.85
2019-04-23T23:11:35.430Z,5.83
2019-04-23T23:14:18.541Z,6.42
2019-04-23T23:16:39.250Z,5.47
2019-04-23T23:19:05.094Z,6.03
2019-04-23T23:21:48.543Z,5.90
2019-04-23T23:24:07.451Z,6.33
2019-04-23T23:26:42.196Z,5.70
2019-04-23T23:29:00.727Z,5.30
2019-04-23T23:31:30.192Z,5.80
2019-04-23T23:34:03.570Z,6.08
2019-04-23T23:39:11.530Z,5.90
2019-04-23T23:44:20.212Z,5.65
2019-04-23T23:48:59.316Z,5.37
2019-04-23T23:51:36.684Z,6.15
2019-04-23T23:54:03.457Z,5.50
2019-04-23T23:56:34.396Z,5.60
2019-04-23T23:59:03.912Z,5.65
